createdAt,value
2023-01-13T00:00:18.211Z,1.00
2023-01-13T00:02:45.393Z,0.65
2023-01-13T00:05:12.626Z,0.70
2023-01-13T00:07:43.428Z,0.57
2023-01-13T00:10:11.283Z,0.88
2023-01-13T00:12:42.385Z,0.60
2023-01-13T00:15:11.336Z,1.23
2023-01-13T00:17:39.133Z,0.68
2023-01-13T00:20:07.466Z,0.80
2023-01-13T00:22:35.369Z,0.93
2023-01-13T00:25:04.632Z,1.15
2023-01-13T00:27:32.321Z,0.70
2023-01-13T00:30:00.592Z,0.70
2023-01-13T00:32:28.431Z,0.95
2023-01-13T00:34:55.788Z,0.57
2023-01-13T00:37:23.756Z,1.15
2023-01-13T00:39:54.060Z,0.73
2023-01-13T00:42:39.607Z,0.50
2023-01-13T00:45:07.085Z,0.70
2023-01-13T00:47:34.583Z,0.88
2023-01-13T00:50:03.873Z,0.68
2023-01-13T00:52:33.475Z,0.70
2023-01-13T00:55:01.040Z,0.80
2023-01-13T00:57:28.030Z,0.95
2023-01-13T00:59:55.487Z,0.82
2023-01-13T01:02:22.561Z,0.70
2023-01-13T01:04:49.693Z,0.45
2023-01-13T01:07:16.895Z,0.43
2023-01-13T01:09:45.338Z,0.70
2023-01-13T01:12:12.981Z,0.75
2023-01-13T01:14:40.026Z,0.80
2023-01-13T01:17:06.959Z,0.82
2023-01-13T01:19:37.526Z,0.90
2023-01-13T01:22:04.853Z,0.70
2023-01-13T01:24:31.951Z,0.95
2023-01-13T01:26:59.115Z,1.40
2023-01-13T01:29:26.236Z,0.60
2023-01-13T01:31:53.499Z,1.00
2023-01-13T01:34:20.479Z,1.10
2023-01-13T01:36:47.536Z,0.80
2023-01-13T01:39:17.174Z,0.90
2023-01-13T01:42:04.087Z,0.75
2023-01-13T01:44:43.263Z,0.82
2023-01-13T01:47:13.949Z,1.00
2023-01-13T01:49:42.135Z,1.00
2023-01-13T01:52:23.533Z,0.70
2023-01-13T01:55:19.971Z,1.10
2023-01-13T01:57:55.595Z,0.95
2023-01-13T02:00:23.409Z,1.10
2023-01-13T02:02:51.730Z,0.93
2023-01-13T02:05:19.567Z,1.52
2023-01-13T02:07:50.788Z,1.10
2023-01-13T02:10:23.712Z,1.53
2023-01-13T02:12:54.062Z,1.17
2023-01-13T02:15:47.652Z,1.40
2023-01-13T02:18:52.568Z,0.90
2023-01-13T02:21:28.729Z,1.65
2023-01-13T02:24:48.573Z,1.50
2023-01-13T02:27:34.756Z,1.63
2023-01-13T02:30:20.414Z,1.40
2023-01-13T02:32:53.210Z,1.67
2023-01-13T02:35:39.551Z,1.50
2023-01-13T02:38:08.658Z,1.95
2023-01-13T02:40:56.924Z,0.95
2023-01-13T02:43:48.901Z,0.90
2023-01-13T02:46:24.123Z,2.40
2023-01-13T02:48:54.593Z,2.15
2023-01-13T02:51:26.060Z,1.27
2023-01-13T02:54:09.419Z,1.33
2023-01-13T02:56:43.890Z,1.23
2023-01-13T02:59:12.524Z,2.03
2023-01-13T03:01:40.210Z,2.22
2023-01-13T03:05:02.632Z,2.25
2023-01-13T03:07:35.621Z,1.30
2023-01-13T03:10:11.703Z,2.05
2023-01-13T03:12:59.276Z,1.38
2023-01-13T03:15:52.710Z,2.00
2023-01-13T03:18:41.732Z,1.98
2023-01-13T03:21:36.353Z,1.60
2023-01-13T03:24:29.648Z,2.20
2023-01-13T03:27:26.547Z,1.80
2023-01-13T03:30:07.824Z,1.80
2023-01-13T03:32:41.901Z,2.35
2023-01-13T03:35:09.205Z,2.03
2023-01-13T03:37:39.727Z,1.63
2023-01-13T03:40:16.985Z,2.13
2023-01-13T03:43:06.802Z,2.67
2023-01-13T03:45:36.355Z,2.03
2023-01-13T03:48:13.623Z,2.28
2023-01-13T03:50:47.284Z,2.53
2023-01-13T03:53:29.418Z,2.92
2023-01-13T03:56:02.845Z,2.22
2023-01-13T03:58:51.869Z,2.15
2023-01-13T04:01:47.286Z,2.05
2023-01-13T04:04:26.002Z,1.48
2023-01-13T04:06:58.235Z,1.90
2023-01-13T04:12:01.060Z,1.80
2023-01-13T04:14:29.574Z,1.75
2023-01-13T04:16:57.491Z,2.00
2023-01-13T04:19:24.572Z,1.77
2023-01-13T04:21:51.516Z,1.98
2023-01-13T04:24:18.521Z,1.40
2023-01-13T04:26:45.566Z,1.95
2023-01-13T04:29:15.394Z,2.10
2023-01-13T04:31:44.624Z,1.55
2023-01-13T04:34:11.694Z,1.70
2023-01-13T04:36:38.835Z,1.75
2023-01-13T04:39:05.949Z,1.98
2023-01-13T04:41:52.853Z,2.13
2023-01-13T04:44:20.037Z,1.30
2023-01-13T04:46:47.212Z,1.20
2023-01-13T04:49:14.433Z,1.50
2023-01-13T04:51:41.399Z,1.70
2023-01-13T04:54:10.996Z,1.40
2023-01-13T04:56:38.086Z,0.90
2023-01-13T04:59:04.997Z,1.40
2023-01-13T05:01:32.437Z,1.33
2023-01-13T05:03:59.370Z,1.85
2023-01-13T05:06:26.361Z,2.38
2023-01-13T05:08:54.424Z,1.73
2023-01-13T05:11:43.536Z,1.00
2023-01-13T05:14:30.215Z,1.63
2023-01-13T05:17:00.578Z,1.40
2023-01-13T05:19:34.292Z,1.48
2023-01-13T05:22:20.907Z,1.60
2023-01-13T05:25:06.483Z,1.55
2023-01-13T05:27:34.103Z,1.40
2023-01-13T05:30:01.079Z,1.10
2023-01-13T05:32:28.945Z,1.77
2023-01-13T05:34:56.498Z,1.73
2023-01-13T05:37:24.535Z,1.08
2023-01-13T05:40:10.209Z,1.00
2023-01-13T05:42:55.650Z,0.88
2023-01-13T05:45:23.229Z,1.33
2023-01-13T05:47:51.681Z,1.45
2023-01-13T05:50:18.931Z,1.17
2023-01-13T05:52:45.904Z,1.10
2023-01-13T05:55:13.011Z,1.30
2023-01-13T05:58:06.967Z,1.10
2023-01-13T06:00:35.859Z,0.63
2023-01-13T06:03:04.881Z,1.10
2023-01-13T06:05:33.069Z,1.00
2023-01-13T06:08:01.825Z,1.30
2023-01-13T06:10:29.809Z,1.17
2023-01-13T06:12:56.766Z,1.00
2023-01-13T06:15:24.033Z,1.90
2023-01-13T06:17:52.433Z,0.90
2023-01-13T06:20:19.744Z,0.63
2023-01-13T06:22:50.262Z,0.70
2023-01-13T06:25:38.204Z,0.68
2023-01-13T06:28:05.345Z,1.00
2023-01-13T06:30:57.784Z,1.13
2023-01-13T06:33:30.402Z,0.60
2023-01-13T06:36:03.258Z,0.80
2023-01-13T06:38:33.880Z,1.35
2023-01-13T06:41:00.819Z,0.82
2023-01-13T06:43:27.996Z,1.15
2023-01-13T06:45:56.214Z,1.10
2023-01-13T06:48:26.724Z,1.95
2023-01-13T06:50:54.292Z,1.98
2023-01-13T06:53:21.500Z,1.65
2023-01-13T06:55:48.511Z,1.83
2023-01-13T06:58:15.676Z,2.10
2023-01-13T07:00:49.761Z,2.47
2023-01-13T07:03:18.696Z,2.33
2023-01-13T07:05:53.509Z,1.83
2023-01-13T07:08:20.842Z,3.65
2023-01-13T07:10:47.882Z,2.13
2023-01-13T07:13:33.213Z,2.20
2023-01-13T07:16:03.170Z,3.15
2023-01-13T07:18:31.937Z,2.00
2023-01-13T07:21:10.854Z,3.65
2023-01-13T07:23:42.594Z,2.90
2023-01-13T07:26:16.780Z,2.58
2023-01-13T07:28:43.951Z,2.67
2023-01-13T07:31:20.950Z,2.42
2023-01-13T07:33:48.741Z,3.92
2023-01-13T07:36:16.166Z,1.90
2023-01-13T07:38:44.812Z,2.75
2023-01-13T07:41:34.183Z,1.88
2023-01-13T07:44:04.958Z,3.25
2023-01-13T07:46:36.082Z,2.50
2023-01-13T07:49:03.783Z,3.28
2023-01-13T07:51:31.091Z,2.97
2023-01-13T07:53:59.842Z,3.13
2023-01-13T07:56:28.577Z,2.08
2023-01-13T07:58:55.652Z,2.63
2023-01-13T08:01:22.683Z,3.40
2023-01-13T08:03:49.787Z,2.85
2023-01-13T08:06:16.741Z,3.42
2023-01-13T08:08:43.679Z,2.20
2023-01-13T08:11:10.687Z,2.30
2023-01-13T08:13:37.938Z,2.30
2023-01-13T08:16:07.935Z,3.38
2023-01-13T08:18:35.955Z,2.47
2023-01-13T08:21:08.873Z,3.08
2023-01-13T08:23:37.310Z,3.17
2023-01-13T08:26:07.026Z,3.20
2023-01-13T08:28:34.810Z,3.38
2023-01-13T08:31:07.368Z,2.45
2023-01-13T08:33:34.508Z,2.25
2023-01-13T08:36:06.307Z,2.28
2023-01-13T08:38:34.803Z,2.35
2023-01-13T08:41:07.876Z,3.20
2023-01-13T08:43:35.214Z,3.97
2023-01-13T08:46:04.958Z,3.58
2023-01-13T08:48:32.105Z,3.33
2023-01-13T08:51:07.421Z,3.05
2023-01-13T08:53:34.489Z,2.78
2023-01-13T08:56:01.902Z,3.05
2023-01-13T08:58:28.876Z,3.20
2023-01-13T09:00:55.999Z,2.42
2023-01-13T09:03:23.064Z,3.70
2023-01-13T09:05:50.578Z,3.00
2023-01-13T09:08:17.574Z,3.30
2023-01-13T09:10:44.635Z,2.75
2023-01-13T09:13:14.970Z,3.60
2023-01-13T09:15:44.733Z,3.35
2023-01-13T09:18:12.836Z,3.08
2023-01-13T09:20:40.511Z,2.90
2023-01-13T09:23:11.439Z,3.10
2023-01-13T09:25:40.023Z,2.97
2023-01-13T09:28:08.862Z,1.95
2023-01-13T09:30:36.995Z,2.55
2023-01-13T09:33:22.520Z,2.75
2023-01-13T09:35:49.677Z,3.60
2023-01-13T09:38:18.161Z,2.40
2023-01-13T09:40:49.135Z,2.67
2023-01-13T09:43:53.800Z,2.05
2023-01-13T09:46:46.581Z,3.17
2023-01-13T09:49:29.641Z,2.33
2023-01-13T09:52:10.664Z,2.80
2023-01-13T09:54:38.113Z,3.10
2023-01-13T09:57:17.182Z,2.88
2023-01-13T09:59:44.622Z,2.90
2023-01-13T10:02:26.972Z,3.30
2023-01-13T10:07:36.149Z,2.63
2023-01-13T10:10:05.476Z,3.50
2023-01-13T10:12:52.922Z,3.03
2023-01-13T10:15:23.413Z,3.20
2023-01-13T10:18:07.530Z,2.28
2023-01-13T10:20:56.706Z,2.47
2023-01-13T10:23:45.274Z,3.33
2023-01-13T10:26:38.992Z,2.67
2023-01-13T10:29:21.114Z,2.10
2023-01-13T10:31:48.157Z,2.65
2023-01-13T10:34:17.663Z,3.08
2023-01-13T10:37:09.243Z,3.20
2023-01-13T10:39:47.447Z,3.60
2023-01-13T10:42:17.665Z,2.85
2023-01-13T10:45:03.794Z,2.58
2023-01-13T10:47:36.534Z,2.80
2023-01-13T10:50:09.806Z,3.13
2023-01-13T10:52:42.949Z,2.72
2023-01-13T10:55:30.601Z,2.60
2023-01-13T10:57:57.838Z,2.88
2023-01-13T11:00:35.006Z,3.00
2023-01-13T11:03:25.078Z,3.40
2023-01-13T11:05:57.423Z,2.78
2023-01-13T11:08:29.090Z,3.08
2023-01-13T11:10:58.698Z,2.17
2023-01-13T11:13:32.764Z,2.42
2023-01-13T11:16:14.267Z,2.72
2023-01-13T11:19:02.433Z,2.40
2023-01-13T11:21:36.701Z,2.70
2023-01-13T11:24:40.961Z,3.05
2023-01-13T11:27:47.497Z,2.25
2023-01-13T11:30:24.554Z,3.17
2023-01-13T11:33:05.028Z,2.88
2023-01-13T11:35:35.967Z,3.80
2023-01-13T11:38:15.418Z,3.03
2023-01-13T11:40:50.821Z,3.03
2023-01-13T11:43:41.142Z,2.50
2023-01-13T11:46:10.761Z,3.65
2023-01-13T11:48:41.879Z,3.30
2023-01-13T11:51:17.426Z,3.10
2023-01-13T11:54:04.209Z,3.13
2023-01-13T11:56:53.016Z,2.72
2023-01-13T11:59:19.913Z,2.63
2023-01-13T12:02:03.336Z,3.70
2023-01-13T12:04:39.576Z,3.03
2023-01-13T12:07:33.027Z,3.17
2023-01-13T12:10:27.962Z,3.25
2023-01-13T12:13:12.450Z,3.25
2023-01-13T12:16:06.656Z,3.03
2023-01-13T12:18:43.031Z,4.22
2023-01-13T12:21:15.875Z,3.88
2023-01-13T12:24:01.504Z,3.97
2023-01-13T12:26:32.351Z,3.58
2023-01-13T12:29:12.484Z,4.75
2023-01-13T12:31:41.289Z,4.80
2023-01-13T12:34:43.391Z,4.03
2023-01-13T12:37:35.075Z,2.88
2023-01-13T12:40:08.788Z,4.10
2023-01-13T12:43:26.378Z,3.22
2023-01-13T12:45:55.331Z,3.10
2023-01-13T12:48:59.714Z,3.70
2023-01-13T12:51:57.137Z,3.53
2023-01-13T12:54:30.337Z,3.60
2023-01-13T12:56:58.700Z,4.60
2023-01-13T12:59:25.696Z,3.03
2023-01-13T13:02:13.045Z,3.13
2023-01-13T13:04:49.739Z,3.00
2023-01-13T13:07:35.868Z,2.90
2023-01-13T13:10:11.702Z,2.83
2023-01-13T13:13:04.881Z,3.55
2023-01-13T13:15:35.600Z,3.20
2023-01-13T13:18:06.264Z,3.33
2023-01-13T13:20:54.052Z,3.13
2023-01-13T13:23:33.392Z,2.70
2023-01-13T13:26:21.410Z,3.25
2023-01-13T13:28:55.430Z,3.35
2023-01-13T13:31:37.534Z,4.13
2023-01-13T13:34:34.491Z,2.75
2023-01-13T13:37:10.348Z,4.38
2023-01-13T13:40:02.542Z,3.47
2023-01-13T13:43:03.011Z,3.78
2023-01-13T13:45:48.630Z,3.67
2023-01-13T13:48:34.567Z,3.08
2023-01-13T13:51:21.184Z,3.78
2023-01-13T13:53:48.292Z,3.30
2023-01-13T13:56:23.055Z,2.83
2023-01-13T13:58:52.572Z,3.85
2023-01-13T14:01:26.318Z,3.78
2023-01-13T14:04:19.966Z,3.40
2023-01-13T14:07:20.629Z,3.17
2023-01-13T14:09:56.613Z,3.47
2023-01-13T14:12:25.948Z,2.95
2023-01-13T14:14:55.956Z,3.30
2023-01-13T14:17:26.493Z,3.20
2023-01-13T14:20:16.317Z,3.05
2023-01-13T14:22:52.575Z,3.08
2023-01-13T14:25:35.054Z,2.72
2023-01-13T14:30:53.418Z,3.92
2023-01-13T14:33:26.616Z,2.97
2023-01-13T14:36:18.549Z,3.10
2023-01-13T14:39:05.261Z,3.75
2023-01-13T14:41:39.119Z,2.67
2023-01-13T14:44:36.042Z,3.00
2023-01-13T14:47:17.374Z,2.60
2023-01-13T14:49:59.105Z,3.13
2023-01-13T14:52:28.081Z,2.08
2023-01-13T14:55:08.648Z,3.42
2023-01-13T14:57:37.039Z,3.97
2023-01-13T15:00:16.036Z,2.70
2023-01-13T15:03:01.018Z,3.83
2023-01-13T15:05:28.142Z,3.40
2023-01-13T15:08:14.436Z,2.92
2023-01-13T15:10:55.261Z,2.47
2023-01-13T15:13:53.373Z,3.05
2023-01-13T15:16:27.198Z,2.90
2023-01-13T15:18:55.825Z,3.65
2023-01-13T15:21:23.862Z,3.00
2023-01-13T15:23:51.140Z,2.65
2023-01-13T15:26:24.706Z,2.13
2023-01-13T15:28:54.343Z,3.70
2023-01-13T15:31:22.217Z,2.55
2023-01-13T15:33:50.310Z,3.80
2023-01-13T15:36:22.874Z,2.90
2023-01-13T15:38:50.399Z,3.00
2023-01-13T15:41:38.104Z,3.17
2023-01-13T15:44:24.165Z,2.60
2023-01-13T15:46:52.314Z,3.42
2023-01-13T15:49:27.991Z,3.40
2023-01-13T15:51:55.004Z,3.13
2023-01-13T15:54:24.640Z,3.08
2023-01-13T15:56:52.847Z,3.97
2023-01-13T15:59:24.180Z,3.20
2023-01-13T16:01:51.432Z,2.37
2023-01-13T16:04:18.417Z,2.30
2023-01-13T16:06:47.526Z,2.83
2023-01-13T16:09:15.199Z,2.75
2023-01-13T16:11:42.219Z,2.45
2023-01-13T16:14:09.391Z,2.75
2023-01-13T16:16:37.359Z,2.78
2023-01-13T16:19:04.366Z,3.05
2023-01-13T16:21:31.322Z,2.58
2023-01-13T16:23:58.475Z,2.15
2023-01-13T16:26:28.065Z,3.17
2023-01-13T16:28:57.556Z,3.15
2023-01-13T16:31:33.169Z,3.05
2023-01-13T16:34:01.915Z,3.72
2023-01-13T16:36:30.846Z,2.55
2023-01-13T16:38:58.024Z,3.17
2023-01-13T16:41:25.408Z,3.95
2023-01-13T16:43:53.466Z,3.25
2023-01-13T16:46:29.754Z,3.42
2023-01-13T16:49:01.786Z,2.53
2023-01-13T16:51:28.839Z,2.92
2023-01-13T16:53:56.598Z,3.35
2023-01-13T16:56:34.714Z,2.72
2023-01-13T16:59:10.916Z,2.70
2023-01-13T17:01:42.244Z,3.47
2023-01-13T17:04:17.629Z,3.65
2023-01-13T17:07:04.561Z,3.90
2023-01-13T17:09:32.440Z,3.53
2023-01-13T17:11:59.395Z,3.50
2023-01-13T17:14:26.687Z,3.25
2023-01-13T17:16:58.755Z,3.17
2023-01-13T17:21:53.399Z,3.10
2023-01-13T17:24:20.676Z,4.32
2023-01-13T17:26:50.104Z,4.13
2023-01-13T17:29:23.050Z,3.17
2023-01-13T17:31:51.100Z,3.92
2023-01-13T17:34:18.987Z,3.60
2023-01-13T17:36:46.031Z,2.67
2023-01-13T17:39:18.272Z,2.58
2023-01-13T17:44:17.754Z,3.42
2023-01-13T17:46:45.148Z,2.95
2023-01-13T17:49:17.370Z,3.03
2023-01-13T17:54:15.715Z,2.88
2023-01-13T17:56:43.312Z,3.25
2023-01-13T17:59:12.512Z,3.40
2023-01-13T18:01:40.240Z,3.45
2023-01-13T18:04:09.514Z,3.92
2023-01-13T18:06:36.423Z,4.55
2023-01-13T18:09:03.395Z,3.50
2023-01-13T18:11:30.422Z,3.88
2023-01-13T18:13:57.700Z,3.40
2023-01-13T18:16:27.372Z,3.38
2023-01-13T18:19:19.258Z,3.72
2023-01-13T18:22:06.384Z,3.92
2023-01-13T18:24:52.121Z,4.18
2023-01-13T18:27:24.835Z,3.40
2023-01-13T18:29:57.257Z,3.83
2023-01-13T18:32:29.309Z,4.35
2023-01-13T18:35:05.953Z,3.15
2023-01-13T18:37:40.041Z,4.10
2023-01-13T18:40:09.382Z,3.78
2023-01-13T18:42:54.282Z,4.60
2023-01-13T18:45:26.949Z,3.95
2023-01-13T18:47:55.806Z,4.03
2023-01-13T18:50:23.670Z,3.38
2023-01-13T18:52:51.613Z,4.50
2023-01-13T18:55:18.850Z,3.80
2023-01-13T18:57:46.183Z,4.30
2023-01-13T19:00:17.094Z,3.70
2023-01-13T19:02:44.703Z,4.30
2023-01-13T19:05:11.954Z,4.15
2023-01-13T19:07:39.234Z,4.55
2023-01-13T19:10:09.977Z,5.68
2023-01-13T19:12:37.128Z,5.00
2023-01-13T19:15:04.680Z,4.38
2023-01-13T19:17:34.788Z,5.32
2023-01-13T19:20:02.408Z,4.63
2023-01-13T19:22:32.905Z,4.97
2023-01-13T19:25:01.132Z,5.38
2023-01-13T19:27:28.857Z,6.15
2023-01-13T19:30:00.640Z,4.82
2023-01-13T19:32:28.322Z,4.68
2023-01-13T19:34:59.211Z,4.68
2023-01-13T19:37:30.450Z,5.18
2023-01-13T19:39:59.253Z,5.57
2023-01-13T19:42:45.559Z,4.57
2023-01-13T19:45:29.178Z,5.38
2023-01-13T19:47:57.333Z,4.95
2023-01-13T19:50:24.911Z,4.30
2023-01-13T19:52:52.163Z,5.50
2023-01-13T19:55:19.865Z,4.90
2023-01-13T19:57:46.951Z,4.63
2023-01-13T20:00:18.308Z,4.57
2023-01-13T20:02:49.433Z,5.33
2023-01-13T20:05:21.460Z,5.20
2023-01-13T20:07:50.722Z,5.03
2023-01-13T20:10:19.888Z,5.40
2023-01-13T20:12:46.873Z,5.47
2023-01-13T20:15:13.985Z,5.97
2023-01-13T20:17:41.812Z,5.60
2023-01-13T20:20:10.588Z,5.55
2023-01-13T20:22:38.732Z,4.93
2023-01-13T20:25:06.290Z,4.88
2023-01-13T20:27:33.393Z,4.53
2023-01-13T20:30:00.366Z,5.72
2023-01-13T20:32:27.303Z,5.80
2023-01-13T20:34:54.576Z,5.57
2023-01-13T20:37:21.621Z,5.20
2023-01-13T20:39:48.724Z,5.72
2023-01-13T20:42:30.883Z,5.63
2023-01-13T20:44:59.991Z,5.40
2023-01-13T20:47:31.369Z,6.15
2023-01-13T20:49:59.296Z,5.25
2023-01-13T20:52:26.625Z,5.38
2023-01-13T20:54:53.619Z,6.72
2023-01-13T20:57:20.626Z,6.25
2023-01-13T20:59:47.847Z,5.32
2023-01-13T21:02:16.399Z,5.22
2023-01-13T21:04:43.615Z,4.68
2023-01-13T21:07:11.089Z,5.32
2023-01-13T21:09:38.367Z,4.88
2023-01-13T21:12:24.845Z,4.00
2023-01-13T21:15:10.904Z,5.70
2023-01-13T21:18:01.237Z,4.43
2023-01-13T21:20:30.726Z,4.85
2023-01-13T21:22:57.733Z,5.30
2023-01-13T21:25:24.864Z,4.40
2023-01-13T21:27:54.087Z,5.13
2023-01-13T21:30:22.812Z,4.65
2023-01-13T21:32:54.101Z,4.82
2023-01-13T21:35:21.033Z,4.97
2023-01-13T21:37:48.040Z,5.03
2023-01-13T21:40:15.995Z,5.50
2023-01-13T21:43:01.558Z,5.70
2023-01-13T21:45:47.122Z,5.75
2023-01-13T21:48:14.107Z,5.47
2023-01-13T21:50:42.265Z,6.00
2023-01-13T21:53:09.412Z,5.40
2023-01-13T21:55:41.760Z,6.13
2023-01-13T21:58:14.771Z,5.22
2023-01-13T22:00:43.845Z,5.95
2023-01-13T22:03:14.802Z,5.30
2023-01-13T22:05:42.124Z,6.68
2023-01-13T22:08:12.157Z,5.28
2023-01-13T22:10:57.569Z,6.40
2023-01-13T22:13:44.035Z,5.38
2023-01-13T22:16:11.067Z,6.40
2023-01-13T22:18:38.497Z,6.40
2023-01-13T22:21:05.758Z,5.38
2023-01-13T22:23:32.773Z,6.30
2023-01-13T22:26:04.494Z,5.55
2023-01-13T22:28:40.764Z,5.90
2023-01-13T22:31:09.824Z,4.40
2023-01-13T22:33:37.758Z,5.68
2023-01-13T22:36:05.592Z,5.18
2023-01-13T22:38:34.957Z,5.82
2023-01-13T22:41:04.586Z,4.85
2023-01-13T22:43:31.961Z,5.65
2023-01-13T22:46:03.141Z,6.68
2023-01-13T22:48:31.744Z,5.75
2023-01-13T22:51:14.743Z,5.00
2023-01-13T22:53:42.687Z,5.65
2023-01-13T22:56:20.274Z,5.93
2023-01-13T22:58:47.517Z,4.88
2023-01-13T23:01:17.186Z,4.72
2023-01-13T23:03:47.855Z,5.00
2023-01-13T23:06:15.624Z,5.80
2023-01-13T23:08:42.898Z,6.38
2023-01-13T23:11:12.643Z,5.53
2023-01-13T23:13:42.254Z,5.30
2023-01-13T23:16:14.322Z,5.65
2023-01-13T23:18:48.314Z,5.53
2023-01-13T23:21:24.692Z,4.95
2023-01-13T23:23:52.503Z,4.93
2023-01-13T23:26:19.852Z,5.32
2023-01-13T23:28:47.379Z,4.57
2023-01-13T23:31:20.627Z,5.38
2023-01-13T23:33:48.575Z,4.43
2023-01-13T23:36:21.827Z,5.32
2023-01-13T23:38:49.282Z,4.40
2023-01-13T23:41:21.600Z,5.18
2023-01-13T23:43:53.649Z,4.90
2023-01-13T23:46:22.955Z,5.85
2023-01-13T23:48:51.091Z,4.35
2023-01-13T23:51:21.188Z,4.35
2023-01-13T23:53:50.108Z,5.20
2023-01-13T23:56:20.417Z,3.47
2023-01-13T23:58:50.113Z,5.03
